sensor_id;sensor_type;location;lat;lon;timestamp;temperature;humidity
9393;DHT22;4736;52.508;13.422;2022-08-19T00:02:29;21.70;1.00
9393;DHT22;4736;52.508;13.422;2022-08-19T00:05:41;21.70;1.00
9393;DHT22;4736;52.508;13.422;2022-08-19T00:08:44;21.70;1.00
9393;DHT22;4736;52.508;13.422;2022-08-19T00:11:48;21.70;1.00
9393;DHT22;4736;52.508;13.422;2022-08-19T00:14:52;21.70;1.00
9393;DHT22;4736;52.508;13.422;2022-08-19T00:17:55;21.70;1.00
9393;DHT22;4736;52.508;13.422;2022-08-19T00:20:59;21.70;1.00
9393;DHT22;4736;52.508;13.422;2022-08-19T00:24:02;21.70;1.00
9393;DHT22;4736;52.508;13.422;2022-08-19T00:27:05;21.60;1.00
9393;DHT22;4736;52.508;13.422;2022-08-19T00:30:28;21.70;1.00
9393;DHT22;4736;52.508;13.422;2022-08-19T00:33:32;21.70;1.00
9393;DHT22;4736;52.508;13.422;2022-08-19T00:36:35;21.70;1.00
9393;DHT22;4736;52.508;13.422;2022-08-19T00:39:39;21.70;1.00
9393;DHT22;4736;52.508;13.422;2022-08-19T00:42:42;21.70;1.00
9393;DHT22;4736;52.508;13.422;2022-08-19T00:45:48;21.70;1.00
9393;DHT22;4736;52.508;13.422;2022-08-19T00:48:51;21.70;1.00
9393;DHT22;4736;52.508;13.422;2022-08-19T00:51:59;21.70;1.00
9393;DHT22;4736;52.508;13.422;2022-08-19T00:55:05;21.70;1.00
9393;DHT22;4736;52.508;13.422;2022-08-19T00:58:14;21.70;1.00
9393;DHT22;4736;52.508;13.422;2022-08-19T01:01:19;21.60;1.00
9393;DHT22;4736;52.508;13.422;2022-08-19T01:04:22;21.60;1.00
9393;DHT22;4736;52.508;13.422;2022-08-19T01:07:25;21.60;1.00
9393;DHT22;4736;52.508;13.422;2022-08-19T01:10:40;21.60;1.00
9393;DHT22;4736;52.508;13.422;2022-08-19T01:13:44;21.50;1.00
9393;DHT22;4736;52.508;13.422;2022-08-19T01:16:53;21.40;1.00
9393;DHT22;4736;52.508;13.422;2022-08-19T01:19:58;21.40;1.00
9393;DHT22;4736;52.508;13.422;2022-08-19T01:23:03;21.40;1.00
9393;DHT22;4736;52.508;13.422;2022-08-19T01:26:07;21.30;1.00
9393;DHT22;4736;52.508;13.422;2022-08-19T01:29:10;21.30;1.00
9393;DHT22;4736;52.508;13.422;2022-08-19T01:32:16;21.30;1.00
9393;DHT22;4736;52.508;13.422;2022-08-19T01:35:35;21.30;1.00
9393;DHT22;4736;52.508;13.422;2022-08-19T01:38:41;21.30;1.00
9393;DHT22;4736;52.508;13.422;2022-08-19T01:41:45;21.20;1.00
9393;DHT22;4736;52.508;13.422;2022-08-19T01:44:48;21.30;1.00
9393;DHT22;4736;52.508;13.422;2022-08-19T01:47:51;21.30;1.00
9393;DHT22;4736;52.508;13.422;2022-08-19T01:51:03;21.30;1.00
9393;DHT22;4736;52.508;13.422;2022-08-19T01:54:08;21.30;1.00
9393;DHT22;4736;52.508;13.422;2022-08-19T01:57:12;21.20;1.00
9393;DHT22;4736;52.508;13.422;2022-08-19T02:00:19;21.20;1.00
9393;DHT22;4736;52.508;13.422;2022-08-19T02:03:24;21.20;1.00
9393;DHT22;4736;52.508;13.422;2022-08-19T02:06:28;21.10;1.00
9393;DHT22;4736;52.508;13.422;2022-08-19T02:09:35;21.10;1.00
9393;DHT22;4736;52.508;13.422;2022-08-19T02:12:39;21.00;1.00
9393;DHT22;4736;52.508;13.422;2022-08-19T02:15:52;20.90;1.00
9393;DHT22;4736;52.508;13.422;2022-08-19T02:18:56;20.90;1.00
9393;DHT22;4736;52.508;13.422;2022-08-19T02:21:59;20.90;1.00
9393;DHT22;4736;52.508;13.422;2022-08-19T02:25:04;20.90;1.00
9393;DHT22;4736;52.508;13.422;2022-08-19T02:28:07;20.80;1.00
9393;DHT22;4736;52.508;13.422;2022-08-19T02:31:11;20.80;1.00
9393;DHT22;4736;52.508;13.422;2022-08-19T02:34:14;20.70;1.00
9393;DHT22;4736;52.508;13.422;2022-08-19T02:37:17;20.70;1.00
9393;DHT22;4736;52.508;13.422;2022-08-19T02:40:39;20.70;1.00
9393;DHT22;4736;52.508;13.422;2022-08-19T02:43:42;20.70;1.00
9393;DHT22;4736;52.508;13.422;2022-08-19T02:47:05;20.70;1.00
9393;DHT22;4736;52.508;13.422;2022-08-19T02:50:09;20.70;1.00
9393;DHT22;4736;52.508;13.422;2022-08-19T02:53:12;20.70;1.00
9393;DHT22;4736;52.508;13.422;2022-08-19T02:56:16;20.70;1.00
9393;DHT22;4736;52.508;13.422;2022-08-19T02:59:20;20.70;1.00
9393;DHT22;4736;52.508;13.422;2022-08-19T03:02:23;20.80;1.00
9393;DHT22;4736;52.508;13.422;2022-08-19T03:05:26;20.80;1.00
9393;DHT22;4736;52.508;13.422;2022-08-19T03:08:49;20.80;1.00
9393;DHT22;4736;52.508;13.422;2022-08-19T03:11:54;20.80;1.00
9393;DHT22;4736;52.508;13.422;2022-08-19T03:14:58;20.70;1.00
9393;DHT22;4736;52.508;13.422;2022-08-19T03:18:02;20.70;1.00
9393;DHT22;4736;52.508;13.422;2022-08-19T03:21:05;20.70;1.00
9393;DHT22;4736;52.508;13.422;2022-08-19T03:24:14;20.70;1.00
9393;DHT22;4736;52.508;13.422;2022-08-19T03:27:19;20.70;1.00
9393;DHT22;4736;52.508;13.422;2022-08-19T03:30:22;20.80;1.00
9393;DHT22;4736;52.508;13.422;2022-08-19T03:33:26;20.70;1.00
9393;DHT22;4736;52.508;13.422;2022-08-19T03:36:29;20.60;1.00
9393;DHT22;4736;52.508;13.422;2022-08-19T03:39:38;20.60;1.00
9393;DHT22;4736;52.508;13.422;2022-08-19T03:42:42;20.60;1.00
9393;DHT22;4736;52.508;13.422;2022-08-19T03:46:02;20.60;1.00
9393;DHT22;4736;52.508;13.422;2022-08-19T03:49:06;20.60;1.00
9393;DHT22;4736;52.508;13.422;2022-08-19T03:52:10;20.60;1.00
9393;DHT22;4736;52.508;13.422;2022-08-19T03:55:14;20.60;1.00
9393;DHT22;4736;52.508;13.422;2022-08-19T03:58:28;20.50;1.00
9393;DHT22;4736;52.508;13.422;2022-08-19T04:01:32;20.60;1.00
9393;DHT22;4736;52.508;13.422;2022-08-19T04:04:38;20.50;1.00
9393;DHT22;4736;52.508;13.422;2022-08-19T04:07:41;20.60;1.00
9393;DHT22;4736;52.508;13.422;2022-08-19T04:10:44;20.60;1.00
9393;DHT22;4736;52.508;13.422;2022-08-19T04:13:49;20.60;1.00
9393;DHT22;4736;52.508;13.422;2022-08-19T04:16:53;20.60;1.00
9393;DHT22;4736;52.508;13.422;2022-08-19T04:19:56;20.60;1.00
9393;DHT22;4736;52.508;13.422;2022-08-19T04:23:01;20.60;1.00
9393;DHT22;4736;52.508;13.422;2022-08-19T04:26:04;20.60;1.00
9393;DHT22;4736;52.508;13.422;2022-08-19T04:29:12;20.60;1.00
9393;DHT22;4736;52.508;13.422;2022-08-19T04:32:16;20.60;1.00
9393;DHT22;4736;52.508;13.422;2022-08-19T04:35:18;20.60;1.00
9393;DHT22;4736;52.508;13.422;2022-08-19T04:38:25;20.70;1.00
9393;DHT22;4736;52.508;13.422;2022-08-19T04:41:28;20.70;1.00
9393;DHT22;4736;52.508;13.422;2022-08-19T04:44:58;20.80;1.00
9393;DHT22;4736;52.508;13.422;2022-08-19T04:48:02;20.80;1.00
9393;DHT22;4736;52.508;13.422;2022-08-19T04:51:25;20.80;1.00
9393;DHT22;4736;52.508;13.422;2022-08-19T04:54:28;20.80;1.00
9393;DHT22;4736;52.508;13.422;2022-08-19T04:57:38;20.90;1.00
9393;DHT22;4736;52.508;13.422;2022-08-19T05:00:43;20.90;1.00
9393;DHT22;4736;52.508;13.422;2022-08-19T05:03:46;20.90;1.00
9393;DHT22;4736;52.508;13.422;2022-08-19T05:06:49;20.90;1.00
9393;DHT22;4736;52.508;13.422;2022-08-19T05:10:00;21.00;1.00
9393;DHT22;4736;52.508;13.422;2022-08-19T05:13:03;21.10;1.00
9393;DHT22;4736;52.508;13.422;2022-08-19T05:16:07;21.20;1.00
9393;DHT22;4736;52.508;13.422;2022-08-19T05:19:10;21.20;1.00
9393;DHT22;4736;52.508;13.422;2022-08-19T05:22:34;21.20;1.00
9393;DHT22;4736;52.508;13.422;2022-08-19T05:25:40;21.30;1.00
9393;DHT22;4736;52.508;13.422;2022-08-19T05:28:45;21.40;1.00
9393;DHT22;4736;52.508;13.422;2022-08-19T05:31:50;21.40;1.00
9393;DHT22;4736;52.508;13.422;2022-08-19T05:34:54;21.50;1.00
9393;DHT22;4736;52.508;13.422;2022-08-19T05:38:00;21.50;1.00
9393;DHT22;4736;52.508;13.422;2022-08-19T05:41:07;21.60;1.00
9393;DHT22;4736;52.508;13.422;2022-08-19T05:44:11;21.70;1.00
9393;DHT22;4736;52.508;13.422;2022-08-19T05:47:16;21.90;1.00
9393;DHT22;4736;52.508;13.422;2022-08-19T05:50:21;21.90;1.00
9393;DHT22;4736;52.508;13.422;2022-08-19T05:53:24;22.00;1.00
9393;DHT22;4736;52.508;13.422;2022-08-19T05:56:27;22.10;1.00
9393;DHT22;4736;52.508;13.422;2022-08-19T05:59:32;22.10;1.00
9393;DHT22;4736;52.508;13.422;2022-08-19T06:02:41;22.10;1.00
9393;DHT22;4736;52.508;13.422;2022-08-19T06:05:44;22.20;1.00
9393;DHT22;4736;52.508;13.422;2022-08-19T06:08:52;22.30;1.00
9393;DHT22;4736;52.508;13.422;2022-08-19T06:11:57;22.40;1.00
9393;DHT22;4736;52.508;13.422;2022-08-19T06:15:04;22.40;1.00
9393;DHT22;4736;52.508;13.422;2022-08-19T06:18:09;22.40;1.00
9393;DHT22;4736;52.508;13.422;2022-08-19T06:21:12;22.40;1.00
9393;DHT22;4736;52.508;13.422;2022-08-19T06:24:18;22.40;1.00
9393;DHT22;4736;52.508;13.422;2022-08-19T06:27:22;22.40;1.00
9393;DHT22;4736;52.508;13.422;2022-08-19T06:30:25;22.50;1.00
9393;DHT22;4736;52.508;13.422;2022-08-19T06:33:32;22.60;1.00
9393;DHT22;4736;52.508;13.422;2022-08-19T06:36:38;22.70;1.00
9393;DHT22;4736;52.508;13.422;2022-08-19T06:39:44;22.70;1.00
9393;DHT22;4736;52.508;13.422;2022-08-19T06:42:47;22.80;1.00
9393;DHT22;4736;52.508;13.422;2022-08-19T06:45:57;22.90;1.00
9393;DHT22;4736;52.508;13.422;2022-08-19T06:49:03;23.00;1.00
9393;DHT22;4736;52.508;13.422;2022-08-19T06:52:08;23.00;1.00
9393;DHT22;4736;52.508;13.422;2022-08-19T06:55:14;23.10;1.00
9393;DHT22;4736;52.508;13.422;2022-08-19T06:58:19;23.10;1.00
9393;DHT22;4736;52.508;13.422;2022-08-19T07:01:22;23.20;1.00
9393;DHT22;4736;52.508;13.422;2022-08-19T07:04:28;23.30;1.00
9393;DHT22;4736;52.508;13.422;2022-08-19T07:07:34;23.40;1.00
9393;DHT22;4736;52.508;13.422;2022-08-19T07:10:37;23.50;1.00
9393;DHT22;4736;52.508;13.422;2022-08-19T07:13:43;23.50;1.00
9393;DHT22;4736;52.508;13.422;2022-08-19T07:16:49;23.50;1.00
9393;DHT22;4736;52.508;13.422;2022-08-19T07:19:54;23.50;1.00
9393;DHT22;4736;52.508;13.422;2022-08-19T07:22:57;23.50;1.00
9393;DHT22;4736;52.508;13.422;2022-08-19T07:26:04;23.60;1.00
9393;DHT22;4736;52.508;13.422;2022-08-19T07:29:10;23.70;1.00
9393;DHT22;4736;52.508;13.422;2022-08-19T07:32:14;23.70;1.00
9393;DHT22;4736;52.508;13.422;2022-08-19T07:35:18;23.80;1.00
9393;DHT22;4736;52.508;13.422;2022-08-19T07:38:22;23.80;1.00
9393;DHT22;4736;52.508;13.422;2022-08-19T07:41:28;23.80;1.00
9393;DHT22;4736;52.508;13.422;2022-08-19T07:44:33;23.80;1.00
9393;DHT22;4736;52.508;13.422;2022-08-19T07:47:36;23.80;1.00
9393;DHT22;4736;52.508;13.422;2022-08-19T07:50:53;23.80;1.00
9393;DHT22;4736;52.508;13.422;2022-08-19T07:53:56;23.80;1.00
9393;DHT22;4736;52.508;13.422;2022-08-19T07:57:00;23.80;1.00
9393;DHT22;4736;52.508;13.422;2022-08-19T08:00:04;23.90;1.00
9393;DHT22;4736;52.508;13.422;2022-08-19T08:03:09;23.90;1.00
9393;DHT22;4736;52.508;13.422;2022-08-19T08:06:18;23.90;1.00
9393;DHT22;4736;52.508;13.422;2022-08-19T08:09:41;23.90;1.00
9393;DHT22;4736;52.508;13.422;2022-08-19T08:12:54;23.80;1.00
9393;DHT22;4736;52.508;13.422;2022-08-19T08:16:10;23.70;1.00
9393;DHT22;4736;52.508;13.422;2022-08-19T08:19:16;23.80;1.00
9393;DHT22;4736;52.508;13.422;2022-08-19T08:22:27;23.70;1.00
9393;DHT22;4736;52.508;13.422;2022-08-19T08:25:48;23.80;1.00
9393;DHT22;4736;52.508;13.422;2022-08-19T08:28:51;23.80;1.00
9393;DHT22;4736;52.508;13.422;2022-08-19T08:31:54;23.90;1.00
9393;DHT22;4736;52.508;13.422;2022-08-19T08:35:03;24.00;1.00
9393;DHT22;4736;52.508;13.422;2022-08-19T08:38:11;24.00;1.00
9393;DHT22;4736;52.508;13.422;2022-08-19T08:41:20;24.00;1.00
9393;DHT22;4736;52.508;13.422;2022-08-19T08:44:38;24.10;1.00
9393;DHT22;4736;52.508;13.422;2022-08-19T08:47:48;24.30;1.00
9393;DHT22;4736;52.508;13.422;2022-08-19T08:50:54;24.40;1.00
9393;DHT22;4736;52.508;13.422;2022-08-19T08:54:02;24.40;1.00
9393;DHT22;4736;52.508;13.422;2022-08-19T08:57:10;24.50;1.00
9393;DHT22;4736;52.508;13.422;2022-08-19T09:00:18;24.50;1.00
9393;DHT22;4736;52.508;13.422;2022-08-19T09:03:24;24.60;1.00
9393;DHT22;4736;52.508;13.422;2022-08-19T09:06:37;24.60;1.00
9393;DHT22;4736;52.508;13.422;2022-08-19T09:09:45;24.60;1.00
9393;DHT22;4736;52.508;13.422;2022-08-19T09:12:57;24.50;1.00
9393;DHT22;4736;52.508;13.422;2022-08-19T09:16:06;24.50;1.00
9393;DHT22;4736;52.508;13.422;2022-08-19T09:19:10;24.50;1.00
9393;DHT22;4736;52.508;13.422;2022-08-19T09:22:18;24.70;1.00
9393;DHT22;4736;52.508;13.422;2022-08-19T09:25:29;24.80;1.00
9393;DHT22;4736;52.508;13.422;2022-08-19T09:28:33;24.90;1.00
9393;DHT22;4736;52.508;13.422;2022-08-19T09:31:40;25.00;1.00
9393;DHT22;4736;52.508;13.422;2022-08-19T09:34:43;25.40;1.00
9393;DHT22;4736;52.508;13.422;2022-08-19T09:37:55;25.60;1.00
9393;DHT22;4736;52.508;13.422;2022-08-19T09:41:06;25.70;1.00
9393;DHT22;4736;52.508;13.422;2022-08-19T09:44:09;25.70;1.00
9393;DHT22;4736;52.508;13.422;2022-08-19T09:47:14;25.70;1.00
9393;DHT22;4736;52.508;13.422;2022-08-19T09:50:21;25.80;1.00
9393;DHT22;4736;52.508;13.422;2022-08-19T09:53:26;25.90;1.00
9393;DHT22;4736;52.508;13.422;2022-08-19T09:56:33;25.80;1.00
9393;DHT22;4736;52.508;13.422;2022-08-19T09:59:40;25.80;1.00
9393;DHT22;4736;52.508;13.422;2022-08-19T10:02:44;25.50;1.00
9393;DHT22;4736;52.508;13.422;2022-08-19T10:05:47;25.50;1.00
9393;DHT22;4736;52.508;13.422;2022-08-19T10:08:56;25.50;1.00
9393;DHT22;4736;52.508;13.422;2022-08-19T10:12:01;25.50;1.00
9393;DHT22;4736;52.508;13.422;2022-08-19T10:15:07;25.40;1.00
9393;DHT22;4736;52.508;13.422;2022-08-19T10:18:10;25.40;1.00
9393;DHT22;4736;52.508;13.422;2022-08-19T10:21:15;25.50;1.00
9393;DHT22;4736;52.508;13.422;2022-08-19T10:24:19;25.50;1.00
9393;DHT22;4736;52.508;13.422;2022-08-19T10:27:34;25.50;1.00
9393;DHT22;4736;52.508;13.422;2022-08-19T10:30:41;25.40;1.00
9393;DHT22;4736;52.508;13.422;2022-08-19T10:33:44;25.20;1.00
9393;DHT22;4736;52.508;13.422;2022-08-19T10:36:55;25.10;1.00
9393;DHT22;4736;52.508;13.422;2022-08-19T10:40:03;25.10;1.00
9393;DHT22;4736;52.508;13.422;2022-08-19T10:43:08;25.10;1.00
9393;DHT22;4736;52.508;13.422;2022-08-19T10:46:14;25.00;1.00
9393;DHT22;4736;52.508;13.422;2022-08-19T10:49:17;25.00;1.00
9393;DHT22;4736;52.508;13.422;2022-08-19T10:52:21;24.90;1.00
9393;DHT22;4736;52.508;13.422;2022-08-19T10:55:39;24.80;1.00
9393;DHT22;4736;52.508;13.422;2022-08-19T10:59:05;24.80;1.00
9393;DHT22;4736;52.508;13.422;2022-08-19T11:02:11;24.60;1.00
9393;DHT22;4736;52.508;13.422;2022-08-19T11:05:15;24.50;1.00
9393;DHT22;4736;52.508;13.422;2022-08-19T11:08:19;24.60;1.00
9393;DHT22;4736;52.508;13.422;2022-08-19T11:11:24;24.70;1.00
9393;DHT22;4736;52.508;13.422;2022-08-19T11:14:28;24.80;1.00
9393;DHT22;4736;52.508;13.422;2022-08-19T11:17:35;24.80;1.00
9393;DHT22;4736;52.508;13.422;2022-08-19T11:20:42;24.80;1.00
9393;DHT22;4736;52.508;13.422;2022-08-19T11:23:46;24.80;1.00
9393;DHT22;4736;52.508;13.422;2022-08-19T11:26:52;24.60;1.00
9393;DHT22;4736;52.508;13.422;2022-08-19T11:29:59;24.50;1.00
9393;DHT22;4736;52.508;13.422;2022-08-19T11:33:10;24.50;1.00
9393;DHT22;4736;52.508;13.422;2022-08-19T11:36:13;24.50;1.00
9393;DHT22;4736;52.508;13.422;2022-08-19T11:39:21;24.60;1.00
9393;DHT22;4736;52.508;13.422;2022-08-19T11:42:24;24.60;1.00
9393;DHT22;4736;52.508;13.422;2022-08-19T11:45:46;24.60;1.00
9393;DHT22;4736;52.508;13.422;2022-08-19T11:48:49;24.60;1.00
9393;DHT22;4736;52.508;13.422;2022-08-19T11:51:52;24.70;1.00
9393;DHT22;4736;52.508;13.422;2022-08-19T11:54:56;24.70;1.00
9393;DHT22;4736;52.508;13.422;2022-08-19T11:57:59;24.50;1.00
9393;DHT22;4736;52.508;13.422;2022-08-19T12:01:08;24.50;1.00
9393;DHT22;4736;52.508;13.422;2022-08-19T12:04:12;24.50;1.00
9393;DHT22;4736;52.508;13.422;2022-08-19T12:07:16;24.50;1.00
9393;DHT22;4736;52.508;13.422;2022-08-19T12:10:19;24.50;1.00
9393;DHT22;4736;52.508;13.422;2022-08-19T12:13:27;24.30;1.00
9393;DHT22;4736;52.508;13.422;2022-08-19T12:16:31;24.40;1.00
9393;DHT22;4736;52.508;13.422;2022-08-19T12:19:36;24.40;1.00
9393;DHT22;4736;52.508;13.422;2022-08-19T12:22:41;24.40;1.00
9393;DHT22;4736;52.508;13.422;2022-08-19T12:25:45;24.40;1.00
9393;DHT22;4736;52.508;13.422;2022-08-19T12:28:51;24.50;1.00
9393;DHT22;4736;52.508;13.422;2022-08-19T12:31:56;24.60;1.00
9393;DHT22;4736;52.508;13.422;2022-08-19T12:35:06;24.60;1.00
9393;DHT22;4736;52.508;13.422;2022-08-19T12:38:11;24.80;1.00
9393;DHT22;4736;52.508;13.422;2022-08-19T12:41:15;24.90;1.00
9393;DHT22;4736;52.508;13.422;2022-08-19T12:44:20;25.10;1.00
9393;DHT22;4736;52.508;13.422;2022-08-19T12:47:35;25.10;1.00
9393;DHT22;4736;52.508;13.422;2022-08-19T12:50:44;25.20;1.00
9393;DHT22;4736;52.508;13.422;2022-08-19T12:53:51;25.40;1.00
9393;DHT22;4736;52.508;13.422;2022-08-19T12:56:57;25.60;1.00
9393;DHT22;4736;52.508;13.422;2022-08-19T13:00:06;25.70;1.00
9393;DHT22;4736;52.508;13.422;2022-08-19T13:03:13;25.60;1.00
9393;DHT22;4736;52.508;13.422;2022-08-19T13:06:19;25.70;1.00
9393;DHT22;4736;52.508;13.422;2022-08-19T13:09:23;25.90;1.00
9393;DHT22;4736;52.508;13.422;2022-08-19T13:12:26;26.00;1.00
9393;DHT22;4736;52.508;13.422;2022-08-19T13:15:29;26.00;1.00
9393;DHT22;4736;52.508;13.422;2022-08-19T13:18:34;25.90;1.00
9393;DHT22;4736;52.508;13.422;2022-08-19T13:21:36;25.90;1.00
9393;DHT22;4736;52.508;13.422;2022-08-19T13:24:40;25.90;1.00
9393;DHT22;4736;52.508;13.422;2022-08-19T13:27:48;25.90;1.00
9393;DHT22;4736;52.508;13.422;2022-08-19T13:30:52;26.00;1.00
9393;DHT22;4736;52.508;13.422;2022-08-19T13:34:15;26.00;1.00
9393;DHT22;4736;52.508;13.422;2022-08-19T13:37:18;26.00;1.00
9393;DHT22;4736;52.508;13.422;2022-08-19T13:40:42;26.00;1.00
9393;DHT22;4736;52.508;13.422;2022-08-19T13:43:51;26.00;1.00
9393;DHT22;4736;52.508;13.422;2022-08-19T13:46:55;26.10;1.00
9393;DHT22;4736;52.508;13.422;2022-08-19T13:50:04;26.00;1.00
9393;DHT22;4736;52.508;13.422;2022-08-19T13:53:08;26.00;1.00
9393;DHT22;4736;52.508;13.422;2022-08-19T13:56:14;25.90;1.00
9393;DHT22;4736;52.508;13.422;2022-08-19T13:59:17;25.70;1.00
9393;DHT22;4736;52.508;13.422;2022-08-19T14:02:20;25.50;1.00
9393;DHT22;4736;52.508;13.422;2022-08-19T14:05:26;25.50;1.00
9393;DHT22;4736;52.508;13.422;2022-08-19T14:08:31;25.40;1.00
9393;DHT22;4736;52.508;13.422;2022-08-19T14:11:34;25.30;1.00
9393;DHT22;4736;52.508;13.422;2022-08-19T14:14:37;25.20;1.00
9393;DHT22;4736;52.508;13.422;2022-08-19T14:17:41;25.30;1.00
9393;DHT22;4736;52.508;13.422;2022-08-19T14:20:46;25.30;1.00
9393;DHT22;4736;52.508;13.422;2022-08-19T14:23:50;25.20;1.00
9393;DHT22;4736;52.508;13.422;2022-08-19T14:26:53;25.10;1.00
9393;DHT22;4736;52.508;13.422;2022-08-19T14:29:56;25.10;1.00
9393;DHT22;4736;52.508;13.422;2022-08-19T14:33:00;25.10;1.00
9393;DHT22;4736;52.508;13.422;2022-08-19T14:36:06;25.10;1.00
9393;DHT22;4736;52.508;13.422;2022-08-19T14:39:09;25.10;1.00
9393;DHT22;4736;52.508;13.422;2022-08-19T14:42:12;25.10;1.00
9393;DHT22;4736;52.508;13.422;2022-08-19T14:45:16;25.10;1.00
9393;DHT22;4736;52.508;13.422;2022-08-19T14:48:21;25.10;1.00
9393;DHT22;4736;52.508;13.422;2022-08-19T14:51:31;25.00;1.00
9393;DHT22;4736;52.508;13.422;2022-08-19T14:54:34;24.80;1.00
9393;DHT22;4736;52.508;13.422;2022-08-19T14:57:37;24.70;1.00
9393;DHT22;4736;52.508;13.422;2022-08-19T15:00:46;24.70;1.00
9393;DHT22;4736;52.508;13.422;2022-08-19T15:03:50;24.70;1.00
9393;DHT22;4736;52.508;13.422;2022-08-19T15:06:55;24.70;1.00
9393;DHT22;4736;52.508;13.422;2022-08-19T15:09:59;24.70;1.00
9393;DHT22;4736;52.508;13.422;2022-08-19T15:13:02;24.70;1.00
9393;DHT22;4736;52.508;13.422;2022-08-19T15:16:05;24.70;1.00
9393;DHT22;4736;52.508;13.422;2022-08-19T15:19:18;24.70;1.00
9393;DHT22;4736;52.508;13.422;2022-08-19T15:22:23;24.70;1.00
9393;DHT22;4736;52.508;13.422;2022-08-19T15:25:26;24.70;1.00
9393;DHT22;4736;52.508;13.422;2022-08-19T15:28:29;24.60;1.00
9393;DHT22;4736;52.508;13.422;2022-08-19T15:31:38;24.50;1.00
9393;DHT22;4736;52.508;13.422;2022-08-19T15:34:41;24.50;1.00
9393;DHT22;4736;52.508;13.422;2022-08-19T15:37:49;24.50;1.00
9393;DHT22;4736;52.508;13.422;2022-08-19T15:40:52;24.50;1.00
9393;DHT22;4736;52.508;13.422;2022-08-19T15:44:19;24.30;1.00
9393;DHT22;4736;52.508;13.422;2022-08-19T15:47:24;24.30;1.00
9393;DHT22;4736;52.508;13.422;2022-08-19T15:50:29;24.10;1.00
9393;DHT22;4736;52.508;13.422;2022-08-19T15:53:34;24.00;1.00
9393;DHT22;4736;52.508;13.422;2022-08-19T15:56:38;23.90;1.00
9393;DHT22;4736;52.508;13.422;2022-08-19T15:59:59;23.80;1.00
9393;DHT22;4736;52.508;13.422;2022-08-19T16:03:20;23.70;1.00
9393;DHT22;4736;52.508;13.422;2022-08-19T16:06:44;23.70;1.00
9393;DHT22;4736;52.508;13.422;2022-08-19T16:09:49;23.60;1.00
9393;DHT22;4736;52.508;13.422;2022-08-19T16:12:52;23.70;1.00
9393;DHT22;4736;52.508;13.422;2022-08-19T16:15:56;23.70;1.00
9393;DHT22;4736;52.508;13.422;2022-08-19T16:19:01;23.70;1.00
9393;DHT22;4736;52.508;13.422;2022-08-19T16:22:11;23.60;1.00
9393;DHT22;4736;52.508;13.422;2022-08-19T16:25:15;23.50;1.00
9393;DHT22;4736;52.508;13.422;2022-08-19T16:28:18;23.50;1.00
9393;DHT22;4736;52.508;13.422;2022-08-19T16:31:24;23.50;1.00
9393;DHT22;4736;52.508;13.422;2022-08-19T16:34:27;23.50;1.00
9393;DHT22;4736;52.508;13.422;2022-08-19T16:37:31;23.40;1.00
9393;DHT22;4736;52.508;13.422;2022-08-19T16:40:36;23.50;1.00
9393;DHT22;4736;52.508;13.422;2022-08-19T16:43:40;23.50;1.00
9393;DHT22;4736;52.508;13.422;2022-08-19T16:46:43;23.60;1.00
9393;DHT22;4736;52.508;13.422;2022-08-19T16:49:59;23.60;1.00
9393;DHT22;4736;52.508;13.422;2022-08-19T16:53:05;23.60;1.00
9393;DHT22;4736;52.508;13.422;2022-08-19T16:56:10;23.60;1.00
9393;DHT22;4736;52.508;13.422;2022-08-19T16:59:13;23.60;1.00
9393;DHT22;4736;52.508;13.422;2022-08-19T17:02:17;23.60;1.00
9393;DHT22;4736;52.508;13.422;2022-08-19T17:05:20;23.60;1.00
9393;DHT22;4736;52.508;13.422;2022-08-19T17:08:25;23.50;1.00
9393;DHT22;4736;52.508;13.422;2022-08-19T17:11:30;23.50;1.00
9393;DHT22;4736;52.508;13.422;2022-08-19T17:14:34;23.40;1.00
9393;DHT22;4736;52.508;13.422;2022-08-19T17:17:37;23.30;1.00
9393;DHT22;4736;52.508;13.422;2022-08-19T17:20:41;23.30;1.00
9393;DHT22;4736;52.508;13.422;2022-08-19T17:23:47;23.20;1.00
9393;DHT22;4736;52.508;13.422;2022-08-19T17:26:52;23.20;1.00
9393;DHT22;4736;52.508;13.422;2022-08-19T17:29:55;23.10;1.00
9393;DHT22;4736;52.508;13.422;2022-08-19T17:33:09;23.10;1.00
9393;DHT22;4736;52.508;13.422;2022-08-19T17:36:12;23.00;1.00
9393;DHT22;4736;52.508;13.422;2022-08-19T17:39:15;23.00;1.00
9393;DHT22;4736;52.508;13.422;2022-08-19T17:42:21;23.00;1.00
9393;DHT22;4736;52.508;13.422;2022-08-19T17:45:24;22.80;1.00
9393;DHT22;4736;52.508;13.422;2022-08-19T17:48:28;22.70;1.00
9393;DHT22;4736;52.508;13.422;2022-08-19T17:51:40;22.70;1.00
9393;DHT22;4736;52.508;13.422;2022-08-19T17:54:55;22.60;1.00
9393;DHT22;4736;52.508;13.422;2022-08-19T17:58:00;22.60;1.00
9393;DHT22;4736;52.508;13.422;2022-08-19T18:01:10;22.50;1.00
9393;DHT22;4736;52.508;13.422;2022-08-19T18:04:13;22.50;1.00
9393;DHT22;4736;52.508;13.422;2022-08-19T18:07:17;22.40;1.00
9393;DHT22;4736;52.508;13.422;2022-08-19T18:10:24;22.40;1.00
9393;DHT22;4736;52.508;13.422;2022-08-19T18:13:36;22.40;1.00
9393;DHT22;4736;52.508;13.422;2022-08-19T18:16:41;22.30;1.00
9393;DHT22;4736;52.508;13.422;2022-08-19T18:19:46;22.30;1.00
9393;DHT22;4736;52.508;13.422;2022-08-19T18:22:49;22.20;1.00
9393;DHT22;4736;52.508;13.422;2022-08-19T18:25:52;22.20;1.00
9393;DHT22;4736;52.508;13.422;2022-08-19T18:28:56;22.20;1.00
9393;DHT22;4736;52.508;13.422;2022-08-19T18:32:01;22.20;1.00
9393;DHT22;4736;52.508;13.422;2022-08-19T18:35:08;22.20;1.00
9393;DHT22;4736;52.508;13.422;2022-08-19T18:38:12;22.20;1.00
9393;DHT22;4736;52.508;13.422;2022-08-19T18:41:57;22.10;1.00
9393;DHT22;4736;52.508;13.422;2022-08-19T18:45:19;22.10;1.00
9393;DHT22;4736;52.508;13.422;2022-08-19T18:48:44;22.10;1.00
9393;DHT22;4736;52.508;13.422;2022-08-19T18:52:04;22.10;1.00
9393;DHT22;4736;52.508;13.422;2022-08-19T18:55:08;22.10;1.00
9393;DHT22;4736;52.508;13.422;2022-08-19T18:58:11;22.10;1.00
9393;DHT22;4736;52.508;13.422;2022-08-19T19:01:19;22.10;1.00
9393;DHT22;4736;52.508;13.422;2022-08-19T19:04:25;22.10;1.00
9393;DHT22;4736;52.508;13.422;2022-08-19T19:07:28;22.10;1.00
9393;DHT22;4736;52.508;13.422;2022-08-19T19:10:32;22.10;1.00
9393;DHT22;4736;52.508;13.422;2022-08-19T19:13:37;22.10;1.00
9393;DHT22;4736;52.508;13.422;2022-08-19T19:16:42;22.10;1.00
9393;DHT22;4736;52.508;13.422;2022-08-19T19:19:56;22.00;1.00
9393;DHT22;4736;52.508;13.422;2022-08-19T19:22:59;22.00;1.00
9393;DHT22;4736;52.508;13.422;2022-08-19T19:26:02;21.90;1.00
9393;DHT22;4736;52.508;13.422;2022-08-19T19:29:06;22.00;1.00
9393;DHT22;4736;52.508;13.422;2022-08-19T19:32:19;22.10;1.00
9393;DHT22;4736;52.508;13.422;2022-08-19T19:35:22;22.00;1.00
9393;DHT22;4736;52.508;13.422;2022-08-19T19:38:25;22.00;1.00
9393;DHT22;4736;52.508;13.422;2022-08-19T19:41:31;22.00;1.00
9393;DHT22;4736;52.508;13.422;2022-08-19T19:44:37;22.00;1.00
9393;DHT22;4736;52.508;13.422;2022-08-19T19:47:49;22.10;1.00
9393;DHT22;4736;52.508;13.422;2022-08-19T19:50:52;22.10;1.00
9393;DHT22;4736;52.508;13.422;2022-08-19T19:53:57;22.00;1.00
9393;DHT22;4736;52.508;13.422;2022-08-19T19:57:00;22.00;1.00
9393;DHT22;4736;52.508;13.422;2022-08-19T20:00:04;22.00;1.00
9393;DHT22;4736;52.508;13.422;2022-08-19T20:03:09;22.00;1.00
9393;DHT22;4736;52.508;13.422;2022-08-19T20:06:13;22.00;1.00
9393;DHT22;4736;52.508;13.422;2022-08-19T20:09:16;21.90;1.00
9393;DHT22;4736;52.508;13.422;2022-08-19T20:12:22;21.90;1.00
9393;DHT22;4736;52.508;13.422;2022-08-19T20:15:25;21.90;1.00
9393;DHT22;4736;52.508;13.422;2022-08-19T20:18:30;21.90;1.00